sensor_id;sensor_type;location;lat;lon;timestamp;pressure;altitude;pressure_sealevel;temperature;humidity
13593;BME280;6867;50.998;4.250;2023-04-01T00:00:36;99117.97;;;12.49;80.52
13593;BME280;6867;50.998;4.250;2023-04-01T00:03:03;99114.41;;;12.85;80.54
13593;BME280;6867;50.998;4.250;2023-04-01T00:05:30;99121.56;;;12.64;81.14
13593;BME280;6867;50.998;4.250;2023-04-01T00:07:56;99132.03;;;12.56;81.56
13593;BME280;6867;50.998;4.250;2023-04-01T00:10:23;99131.94;;;12.88;81.03
13593;BME280;6867;50.998;4.250;2023-04-01T00:12:50;99118.66;;;12.71;80.89
13593;BME280;6867;50.998;4.250;2023-04-01T00:15:18;99123.53;;;12.79;80.63
13593;BME280;6867;50.998;4.250;2023-04-01T00:17:46;99121.03;;;12.62;80.69
13593;BME280;6867;50.998;4.250;2023-04-01T00:20:13;99124.78;;;12.61;81.29
13593;BME280;6867;50.998;4.250;2023-04-01T00:22:40;99127.59;;;12.87;80.81
13593;BME280;6867;50.998;4.250;2023-04-01T00:25:07;99120.19;;;12.62;80.40
13593;BME280;6867;50.998;4.250;2023-04-01T00:27:34;99115.66;;;12.67;79.88
13593;BME280;6867;50.998;4.250;2023-04-01T00:30:01;99130.75;;;12.68;80.78
13593;BME280;6867;50.998;4.250;2023-04-01T00:32:29;99117.06;;;12.80;79.95
13593;BME280;6867;50.998;4.250;2023-04-01T00:34:56;99129.75;;;12.85;79.84
13593;BME280;6867;50.998;4.250;2023-04-01T00:37:25;99144.03;;;12.80;80.31
13593;BME280;6867;50.998;4.250;2023-04-01T00:39:52;99133.78;;;12.82;80.14
13593;BME280;6867;50.998;4.250;2023-04-01T00:42:20;99128.97;;;12.89;79.49
13593;BME280;6867;50.998;4.250;2023-04-01T00:44:49;99133.28;;;12.95;79.59
13593;BME280;6867;50.998;4.250;2023-04-01T00:47:17;99135.72;;;12.92;79.81
13593;BME280;6867;50.998;4.250;2023-04-01T00:49:46;99131.47;;;13.11;79.05
13593;BME280;6867;50.998;4.250;2023-04-01T00:52:16;99144.56;;;12.87;79.62
13593;BME280;6867;50.998;4.250;2023-04-01T00:54:46;99138.97;;;12.94;79.41
13593;BME280;6867;50.998;4.250;2023-04-01T00:57:17;99141.94;;;12.92;79.46
13593;BME280;6867;50.998;4.250;2023-04-01T00:59:48;99141.16;;;13.07;78.96
13593;BME280;6867;50.998;4.250;2023-04-01T01:02:18;99145.59;;;12.71;78.77
13593;BME280;6867;50.998;4.250;2023-04-01T01:04:46;99148.50;;;13.17;78.84
13593;BME280;6867;50.998;4.250;2023-04-01T01:07:20;99133.94;;;13.18;77.57
13593;BME280;6867;50.998;4.250;2023-04-01T01:09:56;99145.72;;;12.96;78.55
13593;BME280;6867;50.998;4.250;2023-04-01T01:12:30;99149.75;;;12.94;78.30
13593;BME280;6867;50.998;4.250;2023-04-01T01:15:06;99159.72;;;12.99;78.90
13593;BME280;6867;50.998;4.250;2023-04-01T01:17:42;99144.66;;;13.08;78.61
13593;BME280;6867;50.998;4.250;2023-04-01T01:20:29;99157.56;;;12.95;78.92
13593;BME280;6867;50.998;4.250;2023-04-01T01:26:13;99168.91;;;12.98;79.04
13593;BME280;6867;50.998;4.250;2023-04-01T01:28:57;99159.91;;;12.82;79.44
13593;BME280;6867;50.998;4.250;2023-04-01T01:31:33;99178.59;;;12.99;79.36
13593;BME280;6867;50.998;4.250;2023-04-01T01:34:11;99165.63;;;12.95;78.70
13593;BME280;6867;50.998;4.250;2023-04-01T01:36:45;99170.09;;;12.75;79.26
13593;BME280;6867;50.998;4.250;2023-04-01T01:39:16;99177.66;;;12.35;80.25
13593;BME280;6867;50.998;4.250;2023-04-01T01:41:45;99187.09;;;12.75;80.15
13593;BME280;6867;50.998;4.250;2023-04-01T01:44:15;99191.56;;;12.54;80.22
13593;BME280;6867;50.998;4.250;2023-04-01T01:46:44;99188.63;;;12.61;79.64
13593;BME280;6867;50.998;4.250;2023-04-01T01:49:12;99184.97;;;12.40;79.62
13593;BME280;6867;50.998;4.250;2023-04-01T01:51:40;99196.34;;;12.47;79.67
13593;BME280;6867;50.998;4.250;2023-04-01T01:54:13;99184.97;;;12.40;79.32
13593;BME280;6867;50.998;4.250;2023-04-01T01:56:41;99189.19;;;12.63;79.46
13593;BME280;6867;50.998;4.250;2023-04-01T01:59:10;99181.19;;;12.78;78.76
13593;BME280;6867;50.998;4.250;2023-04-01T02:01:41;99177.38;;;12.74;78.28
13593;BME280;6867;50.998;4.250;2023-04-01T02:04:10;99182.28;;;12.82;77.96
13593;BME280;6867;50.998;4.250;2023-04-01T02:06:41;99195.84;;;12.50;79.14
13593;BME280;6867;50.998;4.250;2023-04-01T02:09:10;99191.31;;;12.61;78.66
13593;BME280;6867;50.998;4.250;2023-04-01T02:11:41;99199.22;;;12.73;78.70
13593;BME280;6867;50.998;4.250;2023-04-01T02:14:13;99196.97;;;12.59;79.11
13593;BME280;6867;50.998;4.250;2023-04-01T02:16:45;99207.25;;;12.67;79.34
13593;BME280;6867;50.998;4.250;2023-04-01T02:19:15;99208.84;;;12.63;79.20
13593;BME280;6867;50.998;4.250;2023-04-01T02:21:48;99208.03;;;12.63;78.70
13593;BME280;6867;50.998;4.250;2023-04-01T02:24:17;99215.31;;;12.62;78.70
13593;BME280;6867;50.998;4.250;2023-04-01T02:26:50;99230.56;;;12.52;79.79
13593;BME280;6867;50.998;4.250;2023-04-01T02:29:19;99220.13;;;12.28;79.64
13593;BME280;6867;50.998;4.250;2023-04-01T02:31:47;99235.59;;;12.38;80.47
13593;BME280;6867;50.998;4.250;2023-04-01T02:34:15;99231.09;;;12.49;79.40
13593;BME280;6867;50.998;4.250;2023-04-01T02:36:42;99229.16;;;12.44;79.44
13593;BME280;6867;50.998;4.250;2023-04-01T02:39:09;99247.50;;;12.47;79.99
13593;BME280;6867;50.998;4.250;2023-04-01T02:41:39;99236.00;;;12.57;79.96
13593;BME280;6867;50.998;4.250;2023-04-01T02:44:07;99240.78;;;12.50;79.80
13593;BME280;6867;50.998;4.250;2023-04-01T02:46:35;99253.19;;;12.51;80.36
13593;BME280;6867;50.998;4.250;2023-04-01T02:49:02;99248.81;;;12.44;80.37
13593;BME280;6867;50.998;4.250;2023-04-01T02:51:29;99253.25;;;12.29;80.25
13593;BME280;6867;50.998;4.250;2023-04-01T02:53:55;99247.41;;;12.37;80.73
13593;BME280;6867;50.998;4.250;2023-04-01T02:56:22;99268.28;;;12.25;80.56
13593;BME280;6867;50.998;4.250;2023-04-01T02:58:49;99255.59;;;12.47;80.16
13593;BME280;6867;50.998;4.250;2023-04-01T03:01:17;99262.25;;;12.71;80.17
13593;BME280;6867;50.998;4.250;2023-04-01T03:03:44;99266.81;;;12.39;80.43
13593;BME280;6867;50.998;4.250;2023-04-01T03:06:12;99258.16;;;12.64;79.72
13593;BME280;6867;50.998;4.250;2023-04-01T03:08:39;99282.47;;;12.42;80.31
13593;BME280;6867;50.998;4.250;2023-04-01T03:11:06;99283.25;;;12.37;80.31
13593;BME280;6867;50.998;4.250;2023-04-01T03:13:33;99291.56;;;12.36;80.61
13593;BME280;6867;50.998;4.250;2023-04-01T03:16:00;99300.00;;;12.17;81.50
13593;BME280;6867;50.998;4.250;2023-04-01T03:18:28;99288.53;;;12.27;80.95
13593;BME280;6867;50.998;4.250;2023-04-01T03:20:55;99293.00;;;12.16;80.73
13593;BME280;6867;50.998;4.250;2023-04-01T03:23:22;99313.91;;;12.36;81.38
13593;BME280;6867;50.998;4.250;2023-04-01T03:25:51;99295.94;;;12.15;81.22
13593;BME280;6867;50.998;4.250;2023-04-01T03:28:18;99299.88;;;12.61;80.29
13593;BME280;6867;50.998;4.250;2023-04-01T03:30:45;99295.47;;;12.50;80.00
13593;BME280;6867;50.998;4.250;2023-04-01T03:33:12;99310.09;;;12.59;80.07
13593;BME280;6867;50.998;4.250;2023-04-01T03:35:40;99319.91;;;12.43;80.89
13593;BME280;6867;50.998;4.250;2023-04-01T03:38:07;99314.63;;;12.54;80.62
13593;BME280;6867;50.998;4.250;2023-04-01T03:40:33;99311.53;;;12.40;80.21
13593;BME280;6867;50.998;4.250;2023-04-01T03:43:02;99326.66;;;11.92;80.96
13593;BME280;6867;50.998;4.250;2023-04-01T03:45:33;99324.53;;;12.48;80.86
13593;BME280;6867;50.998;4.250;2023-04-01T03:48:00;99330.66;;;12.38;81.25
13593;BME280;6867;50.998;4.250;2023-04-01T03:50:26;99313.84;;;12.26;80.51
13593;BME280;6867;50.998;4.250;2023-04-01T03:52:55;99327.72;;;12.72;79.87
13593;BME280;6867;50.998;4.250;2023-04-01T03:55:22;99319.41;;;12.79;79.53
13593;BME280;6867;50.998;4.250;2023-04-01T03:57:48;99322.91;;;12.47;80.08
13593;BME280;6867;50.998;4.250;2023-04-01T04:00:15;99338.28;;;12.25;80.84
13593;BME280;6867;50.998;4.250;2023-04-01T04:02:42;99337.34;;;12.36;80.17
13593;BME280;6867;50.998;4.250;2023-04-01T04:05:09;99351.84;;;12.08;80.92
13593;BME280;6867;50.998;4.250;2023-04-01T04:07:36;99358.13;;;12.40;81.33
13593;BME280;6867;50.998;4.250;2023-04-01T04:10:05;99340.44;;;12.50;80.65
13593;BME280;6867;50.998;4.250;2023-04-01T04:12:32;99349.16;;;12.08;81.44
13593;BME280;6867;50.998;4.250;2023-04-01T04:14:59;99346.09;;;12.21;80.75
13593;BME280;6867;50.998;4.250;2023-04-01T04:17:25;99359.69;;;12.09;80.70
13593;BME280;6867;50.998;4.250;2023-04-01T04:19:52;99359.69;;;12.36;80.82
13593;BME280;6867;50.998;4.250;2023-04-01T04:22:19;99366.78;;;11.77;81.69
13593;BME280;6867;50.998;4.250;2023-04-01T04:24:46;99372.00;;;12.27;81.48
13593;BME280;6867;50.998;4.250;2023-04-01T04:27:14;99367.31;;;12.17;80.97
13593;BME280;6867;50.998;4.250;2023-04-01T04:29:41;99366.41;;;12.34;80.85
13593;BME280;6867;50.998;4.250;2023-04-01T04:32:08;99367.34;;;11.79;81.86
13593;BME280;6867;50.998;4.250;2023-04-01T04:34:34;99377.41;;;11.83;81.72
13593;BME280;6867;50.998;4.250;2023-04-01T04:37:01;99390.88;;;11.66;82.30
13593;BME280;6867;50.998;4.250;2023-04-01T04:39:28;99392.22;;;12.08;81.97
13593;BME280;6867;50.998;4.250;2023-04-01T04:41:55;99376.50;;;12.00;81.40
13593;BME280;6867;50.998;4.250;2023-04-01T04:44:23;99379.34;;;12.10;81.44
13593;BME280;6867;50.998;4.250;2023-04-01T04:46:50;99377.47;;;11.71;81.52
13593;BME280;6867;50.998;4.250;2023-04-01T04:49:17;99383.88;;;12.31;80.86
13593;BME280;6867;50.998;4.250;2023-04-01T04:51:44;99401.50;;;12.17;81.69
13593;BME280;6867;50.998;4.250;2023-04-01T04:54:11;99410.44;;;12.23;81.95
13593;BME280;6867;50.998;4.250;2023-04-01T04:56:37;99399.22;;;12.31;81.51
13593;BME280;6867;50.998;4.250;2023-04-01T04:59:05;99407.44;;;12.19;81.60
13593;BME280;6867;50.998;4.250;2023-04-01T05:01:33;99407.38;;;12.14;81.45
13593;BME280;6867;50.998;4.250;2023-04-01T05:03:59;99412.06;;;12.02;81.69
13593;BME280;6867;50.998;4.250;2023-04-01T05:06:26;99413.63;;;11.98;81.77
13593;BME280;6867;50.998;4.250;2023-04-01T05:08:56;99418.06;;;12.31;81.30
13593;BME280;6867;50.998;4.250;2023-04-01T05:11:23;99412.44;;;11.88;81.56
13593;BME280;6867;50.998;4.250;2023-04-01T05:13:52;99428.97;;;12.19;81.59
13593;BME280;6867;50.998;4.250;2023-04-01T05:16:20;99418.75;;;11.99;81.78
13593;BME280;6867;50.998;4.250;2023-04-01T05:18:48;99430.41;;;12.05;81.43
13593;BME280;6867;50.998;4.250;2023-04-01T05:21:15;99443.66;;;12.11;81.13
13593;BME280;6867;50.998;4.250;2023-04-01T05:23:42;99444.38;;;12.02;81.12
13593;BME280;6867;50.998;4.250;2023-04-01T05:26:11;99438.16;;;12.23;80.92
13593;BME280;6867;50.998;4.250;2023-04-01T05:28:38;99453.03;;;12.26;80.94
13593;BME280;6867;50.998;4.250;2023-04-01T05:31:06;99433.09;;;12.27;80.33
13593;BME280;6867;50.998;4.250;2023-04-01T05:33:32;99450.38;;;12.31;80.63
13593;BME280;6867;50.998;4.250;2023-04-01T05:36:07;99438.41;;;12.43;79.61
13593;BME280;6867;50.998;4.250;2023-04-01T05:38:34;99449.44;;;12.42;79.90
13593;BME280;6867;50.998;4.250;2023-04-01T05:41:02;99436.88;;;12.53;79.11
13593;BME280;6867;50.998;4.250;2023-04-01T05:43:29;99457.13;;;12.11;80.33
13593;BME280;6867;50.998;4.250;2023-04-01T05:45:56;99468.47;;;12.35;80.40
13593;BME280;6867;50.998;4.250;2023-04-01T05:48:22;99472.91;;;12.03;80.83
13593;BME280;6867;50.998;4.250;2023-04-01T05:50:49;99470.31;;;12.30;80.66
13593;BME280;6867;50.998;4.250;2023-04-01T05:53:17;99482.81;;;12.19;80.54
13593;BME280;6867;50.998;4.250;2023-04-01T05:55:44;99482.16;;;12.12;80.86
13593;BME280;6867;50.998;4.250;2023-04-01T05:58:10;99475.78;;;12.62;79.53
13593;BME280;6867;50.998;4.250;2023-04-01T06:00:37;99489.59;;;12.21;80.12
13593;BME280;6867;50.998;4.250;2023-04-01T06:03:04;99467.47;;;12.41;79.38
13593;BME280;6867;50.998;4.250;2023-04-01T06:05:38;99482.31;;;12.44;80.12
13593;BME280;6867;50.998;4.250;2023-04-01T06:08:10;99487.63;;;12.17;80.07
13593;BME280;6867;50.998;4.250;2023-04-01T06:10:55;99489.56;;;12.65;79.53
13593;BME280;6867;50.998;4.250;2023-04-01T06:13:34;99489.00;;;12.41;79.23
13593;BME280;6867;50.998;4.250;2023-04-01T06:16:12;99490.78;;;12.31;78.88
13593;BME280;6867;50.998;4.250;2023-04-01T06:18:52;99503.75;;;12.34;79.12
13593;BME280;6867;50.998;4.250;2023-04-01T06:21:41;99510.41;;;12.09;79.61
13593;BME280;6867;50.998;4.250;2023-04-01T06:24:38;99523.38;;;12.12;80.23
13593;BME280;6867;50.998;4.250;2023-04-01T06:27:16;99524.94;;;11.75;80.85
13593;BME280;6867;50.998;4.250;2023-04-01T06:30:02;99524.38;;;11.89;80.70
13593;BME280;6867;50.998;4.250;2023-04-01T06:32:51;99532.63;;;11.83;80.37
13593;BME280;6867;50.998;4.250;2023-04-01T06:35:41;99536.22;;;11.88;80.60
13593;BME280;6867;50.998;4.250;2023-04-01T06:38:32;99544.28;;;12.05;80.23
13593;BME280;6867;50.998;4.250;2023-04-01T06:41:24;99533.84;;;12.31;79.50
13593;BME280;6867;50.998;4.250;2023-04-01T06:43:59;99534.09;;;11.90;80.20
13593;BME280;6867;50.998;4.250;2023-04-01T06:46:40;99551.63;;;11.93;80.63
13593;BME280;6867;50.998;4.250;2023-04-01T06:49:29;99558.78;;;11.70;81.49
13593;BME280;6867;50.998;4.250;2023-04-01T06:52:05;99559.00;;;12.19;80.70
13593;BME280;6867;50.998;4.250;2023-04-01T06:54:37;99550.00;;;11.92;80.77
13593;BME280;6867;50.998;4.250;2023-04-01T06:57:15;99563.63;;;12.24;81.07
13593;BME280;6867;50.998;4.250;2023-04-01T06:59:47;99561.84;;;12.30;80.36
13593;BME280;6867;50.998;4.250;2023-04-01T07:02:23;99572.81;;;12.06;80.55
13593;BME280;6867;50.998;4.250;2023-04-01T07:04:53;99554.53;;;12.25;79.91
13593;BME280;6867;50.998;4.250;2023-04-01T07:07:29;99570.72;;;11.91;80.77
13593;BME280;6867;50.998;4.250;2023-04-01T07:09:58;99584.66;;;11.88;81.35
13593;BME280;6867;50.998;4.250;2023-04-01T07:12:37;99579.88;;;12.29;80.89
13593;BME280;6867;50.998;4.250;2023-04-01T07:15:16;99583.09;;;12.09;80.44
13593;BME280;6867;50.998;4.250;2023-04-01T07:17:45;99573.50;;;12.35;80.57
13593;BME280;6867;50.998;4.250;2023-04-01T07:20:20;99581.44;;;12.25;80.76
13593;BME280;6867;50.998;4.250;2023-04-01T07:22:54;99597.47;;;12.37;81.47
13593;BME280;6867;50.998;4.250;2023-04-01T07:25:24;99585.41;;;12.61;80.07
13593;BME280;6867;50.998;4.250;2023-04-01T07:27:53;99589.38;;;12.76;79.46
13593;BME280;6867;50.998;4.250;2023-04-01T07:30:26;99583.41;;;12.52;79.47
13593;BME280;6867;50.998;4.250;2023-04-01T07:33:00;99594.66;;;12.27;80.42
13593;BME280;6867;50.998;4.250;2023-04-01T07:35:35;99592.84;;;12.32;80.10
13593;BME280;6867;50.998;4.250;2023-04-01T07:38:15;99594.50;;;12.55;79.22
13593;BME280;6867;50.998;4.250;2023-04-01T07:40:50;99592.75;;;12.66;78.91
13593;BME280;6867;50.998;4.250;2023-04-01T07:43:41;99585.16;;;13.07;78.18
13593;BME280;6867;50.998;4.250;2023-04-01T07:46:18;99602.28;;;12.74;78.18
13593;BME280;6867;50.998;4.250;2023-04-01T07:48:54;99611.91;;;12.48;78.74
13593;BME280;6867;50.998;4.250;2023-04-01T07:51:29;99622.44;;;12.32;79.50
13593;BME280;6867;50.998;4.250;2023-04-01T07:54:03;99625.22;;;12.76;79.43
13593;BME280;6867;50.998;4.250;2023-04-01T07:56:37;99620.22;;;12.63;78.98
13593;BME280;6867;50.998;4.250;2023-04-01T07:59:11;99612.56;;;12.99;78.55
13593;BME280;6867;50.998;4.250;2023-04-01T08:01:48;99623.03;;;12.73;78.48
13593;BME280;6867;50.998;4.250;2023-04-01T08:04:24;99627.66;;;12.78;78.02
13593;BME280;6867;50.998;4.250;2023-04-01T08:06:59;99631.09;;;12.73;78.42
13593;BME280;6867;50.998;4.250;2023-04-01T08:09:35;99632.69;;;13.13;77.79
13593;BME280;6867;50.998;4.250;2023-04-01T08:12:10;99639.41;;;12.88;77.97
13593;BME280;6867;50.998;4.250;2023-04-01T08:14:50;99663.69;;;12.71;78.82
13593;BME280;6867;50.998;4.250;2023-04-01T08:17:28;99643.34;;;12.81;78.11
13593;BME280;6867;50.998;4.250;2023-04-01T08:20:14;99652.34;;;12.91;78.11
13593;BME280;6867;50.998;4.250;2023-04-01T08:22:49;99643.84;;;12.78;77.27
13593;BME280;6867;50.998;4.250;2023-04-01T08:25:20;99652.13;;;12.71;77.54
13593;BME280;6867;50.998;4.250;2023-04-01T08:27:51;99654.66;;;12.83;77.52
13593;BME280;6867;50.998;4.250;2023-04-01T08:30:23;99685.59;;;12.58;79.05
13593;BME280;6867;50.998;4.250;2023-04-01T08:32:55;99674.75;;;12.92;78.55
13593;BME280;6867;50.998;4.250;2023-04-01T08:35:29;99681.13;;;13.08;78.51
13593;BME280;6867;50.998;4.250;2023-04-01T08:38:01;99668.63;;;12.96;78.07
13593;BME280;6867;50.998;4.250;2023-04-01T08:40:55;99684.63;;;12.86;78.80
13593;BME280;6867;50.998;4.250;2023-04-01T08:49:10;99687.31;;;13.47;76.97
13593;BME280;6867;50.998;4.250;2023-04-01T08:52:29;99692.44;;;13.05;77.32
13593;BME280;6867;50.998;4.250;2023-04-01T08:58:16;99707.44;;;12.79;78.16
13593;BME280;6867;50.998;4.250;2023-04-01T09:00:49;99707.94;;;13.14;77.96
13593;BME280;6867;50.998;4.250;2023-04-01T09:03:51;99730.63;;;13.18;78.61
13593;BME280;6867;50.998;4.250;2023-04-01T09:06:32;99700.06;;;13.30;76.74
13593;BME280;6867;50.998;4.250;2023-04-01T09:09:24;99719.56;;;13.37;77.76
13593;BME280;6867;50.998;4.250;2023-04-01T09:12:10;99704.94;;;13.55;76.38
13593;BME280;6867;50.998;4.250;2023-04-01T09:15:12;99719.25;;;13.55;76.73
13593;BME280;6867;50.998;4.250;2023-04-01T09:18:11;99708.63;;;13.49;75.92
13593;BME280;6867;50.998;4.250;2023-04-01T09:20:47;99711.50;;;13.64;75.99
13593;BME280;6867;50.998;4.250;2023-04-01T09:23:29;99693.78;;;13.73;74.91
13593;BME280;6867;50.998;4.250;2023-04-01T09:26:19;99715.91;;;13.48;76.33
13593;BME280;6867;50.998;4.250;2023-04-01T09:28:54;99714.72;;;13.61;75.47
13593;BME280;6867;50.998;4.250;2023-04-01T09:31:50;99692.09;;;13.40;74.70
13593;BME280;6867;50.998;4.250;2023-04-01T09:34:54;99732.84;;;13.43;75.81
13593;BME280;6867;50.998;4.250;2023-04-01T09:37:34;99732.34;;;13.68;75.93
13593;BME280;6867;50.998;4.250;2023-04-01T09:40:30;99724.81;;;13.49;75.57
13593;BME280;6867;50.998;4.250;2023-04-01T09:46:18;99736.34;;;13.22;75.92
13593;BME280;6867;50.998;4.250;2023-04-01T09:49:05;99758.91;;;13.16;76.80
13593;BME280;6867;50.998;4.250;2023-04-01T09:51:39;99753.69;;;13.09;76.81
13593;BME280;6867;50.998;4.250;2023-04-01T09:54:27;99758.31;;;13.53;76.50
13593;BME280;6867;50.998;4.250;2023-04-01T09:57:25;99723.47;;;14.27;74.03
13593;BME280;6867;50.998;4.250;2023-04-01T10:06:21;99723.06;;;14.45;72.96
13593;BME280;6867;50.998;4.250;2023-04-01T10:18:34;99729.94;;;13.99;72.88
13593;BME280;6867;50.998;4.250;2023-04-01T10:21:20;99742.28;;;13.90;72.84
13593;BME280;6867;50.998;4.250;2023-04-01T10:24:15;99751.69;;;13.87;73.44
13593;BME280;6867;50.998;4.250;2023-04-01T10:27:02;99759.59;;;13.67;73.78
13593;BME280;6867;50.998;4.250;2023-04-01T10:30:07;99757.72;;;13.94;73.24
13593;BME280;6867;50.998;4.250;2023-04-01T10:36:25;99775.88;;;13.77;74.22
13593;BME280;6867;50.998;4.250;2023-04-01T10:45:37;99766.03;;;13.66;73.34
13593;BME280;6867;50.998;4.250;2023-04-01T10:48:23;99758.66;;;13.83;72.20
13593;BME280;6867;50.998;4.250;2023-04-01T10:51:16;99784.22;;;13.54;73.42
13593;BME280;6867;50.998;4.250;2023-04-01T10:53:49;99762.59;;;13.98;72.25
13593;BME280;6867;50.998;4.250;2023-04-01T10:56:45;99760.19;;;14.28;71.42
13593;BME280;6867;50.998;4.250;2023-04-01T10:59:49;99740.56;;;14.70;70.35
13593;BME280;6867;50.998;4.250;2023-04-01T11:02:44;99788.19;;;15.13;71.61
13593;BME280;6867;50.998;4.250;2023-04-01T11:15:26;99788.75;;;13.92;71.93
13593;BME280;6867;50.998;4.250;2023-04-01T11:18:23;99759.50;;;13.84;71.00
13593;BME280;6867;50.998;4.250;2023-04-01T11:24:09;99783.72;;;13.57;72.14
13593;BME280;6867;50.998;4.250;2023-04-01T11:26:51;99818.44;;;13.70;72.94
13593;BME280;6867;50.998;4.250;2023-04-01T11:29:39;99807.16;;;13.73;72.36
13593;BME280;6867;50.998;4.250;2023-04-01T11:32:20;99813.41;;;13.79;72.57
13593;BME280;6867;50.998;4.250;2023-04-01T11:35:02;99809.44;;;14.35;71.79
13593;BME280;6867;50.998;4.250;2023-04-01T11:37:40;99788.75;;;14.78;69.86
13593;BME280;6867;50.998;4.250;2023-04-01T11:40:19;99778.00;;;15.36;68.72
13593;BME280;6867;50.998;4.250;2023-04-01T11:42:55;99793.63;;;14.81;69.29
13593;BME280;6867;50.998;4.250;2023-04-01T11:45:32;99819.13;;;14.31;71.09
13593;BME280;6867;50.998;4.250;2023-04-01T11:48:13;99829.75;;;14.70;70.85
13593;BME280;6867;50.998;4.250;2023-04-01T11:50:59;99806.91;;;14.51;70.41
13593;BME280;6867;50.998;4.250;2023-04-01T11:53:36;99816.28;;;14.75;70.47
13593;BME280;6867;50.998;4.250;2023-04-01T11:56:19;99787.50;;;15.38;68.43
13593;BME280;6867;50.998;4.250;2023-04-01T11:59:02;99778.31;;;15.39;67.43
13593;BME280;6867;50.998;4.250;2023-04-01T12:01:45;99795.66;;;15.43;67.93
13593;BME280;6867;50.998;4.250;2023-04-01T12:04:43;99805.38;;;15.39;68.20
13593;BME280;6867;50.998;4.250;2023-04-01T12:07:27;99798.16;;;14.43;68.75
13593;BME280;6867;50.998;4.250;2023-04-01T12:10:05;99809.13;;;14.96;68.35
13593;BME280;6867;50.998;4.250;2023-04-01T12:12:48;99794.41;;;15.14;67.26
13593;BME280;6867;50.998;4.250;2023-04-01T12:15:23;99826.91;;;15.24;67.92
13593;BME280;6867;50.998;4.250;2023-04-01T12:17:57;99839.84;;;15.17;68.71
13593;BME280;6867;50.998;4.250;2023-04-01T12:20:37;99846.03;;;14.75;68.87
13593;BME280;6867;50.998;4.250;2023-04-01T12:23:19;99869.59;;;14.26;70.39
13593;BME280;6867;50.998;4.250;2023-04-01T12:26:12;99888.41;;;14.42;71.04
13593;BME280;6867;50.998;4.250;2023-04-01T12:28:54;99883.47;;;14.88;70.80
13593;BME280;6867;50.998;4.250;2023-04-01T12:31:31;99844.91;;;14.71;69.42
13593;BME280;6867;50.998;4.250;2023-04-01T12:34:35;99863.50;;;14.94;69.48
13593;BME280;6867;50.998;4.250;2023-04-01T12:37:11;99858.25;;;14.29;70.24
13593;BME280;6867;50.998;4.250;2023-04-01T12:40:02;99871.03;;;15.30;69.72
13593;BME280;6867;50.998;4.250;2023-04-01T12:42:55;99889.88;;;14.82;70.29
13593;BME280;6867;50.998;4.250;2023-04-01T12:45:30;99868.06;;;14.89;69.45
13593;BME280;6867;50.998;4.250;2023-04-01T12:48:22;99870.16;;;14.82;69.24
13593;BME280;6867;50.998;4.250;2023-04-01T12:51:20;99861.31;;;15.34;68.65
13593;BME280;6867;50.998;4.250;2023-04-01T12:57:07;99866.50;;;15.35;67.94
13593;BME280;6867;50.998;4.250;2023-04-01T12:59:58;99873.22;;;14.95;68.93
13593;BME280;6867;50.998;4.250;2023-04-01T13:02:37;99911.38;;;14.45;70.05
13593;BME280;6867;50.998;4.250;2023-04-01T13:05:29;99930.69;;;14.54;71.54
13593;BME280;6867;50.998;4.250;2023-04-01T13:08:09;99913.31;;;14.72;70.15
13593;BME280;6867;50.998;4.250;2023-04-01T13:11:09;99908.66;;;14.18;70.63
13593;BME280;6867;50.998;4.250;2023-04-01T13:13:52;99940.66;;;13.32;73.37
13593;BME280;6867;50.998;4.250;2023-04-01T13:16:24;99966.81;;;13.31;74.91
13593;BME280;6867;50.998;4.250;2023-04-01T13:18:57;99984.13;;;13.69;75.03
13593;BME280;6867;50.998;4.250;2023-04-01T13:21:34;99967.31;;;14.66;73.74
13593;BME280;6867;50.998;4.250;2023-04-01T13:24:13;99928.94;;;14.20;71.93
13593;BME280;6867;50.998;4.250;2023-04-01T13:26:53;99936.53;;;14.24;72.69
13593;BME280;6867;50.998;4.250;2023-04-01T13:29:30;99939.97;;;14.41;71.89
13593;BME280;6867;50.998;4.250;2023-04-01T13:32:09;99934.06;;;14.66;71.65
13593;BME280;6867;50.998;4.250;2023-04-01T13:34:52;99933.13;;;14.82;71.05
13593;BME280;6867;50.998;4.250;2023-04-01T13:37:34;99917.91;;;14.22;70.94
13593;BME280;6867;50.998;4.250;2023-04-01T13:40:27;99931.75;;;14.31;71.31
13593;BME280;6867;50.998;4.250;2023-04-01T13:43:04;99933.56;;;14.25;70.96
13593;BME280;6867;50.998;4.250;2023-04-01T13:45:45;99933.53;;;13.98;71.39
13593;BME280;6867;50.998;4.250;2023-04-01T13:48:28;99941.13;;;14.01;71.44
13593;BME280;6867;50.998;4.250;2023-04-01T13:54:41;99948.56;;;13.72;72.16
13593;BME280;6867;50.998;4.250;2023-04-01T13:57:24;99965.88;;;14.37;71.42
13593;BME280;6867;50.998;4.250;2023-04-01T14:00:06;99941.50;;;14.54;70.50
13593;BME280;6867;50.998;4.250;2023-04-01T14:02:47;99955.00;;;14.76;70.23
13593;BME280;6867;50.998;4.250;2023-04-01T14:08:26;99958.78;;;14.53;70.41
13593;BME280;6867;50.998;4.250;2023-04-01T14:11:07;99948.88;;;14.85;70.13
13593;BME280;6867;50.998;4.250;2023-04-01T14:13:41;99957.00;;;15.17;69.59
13593;BME280;6867;50.998;4.250;2023-04-01T14:16:24;99948.19;;;15.32;69.51
13593;BME280;6867;50.998;4.250;2023-04-01T14:19:07;99932.00;;;15.05;68.24
13593;BME280;6867;50.998;4.250;2023-04-01T14:21:41;99908.53;;;14.84;67.26
13593;BME280;6867;50.998;4.250;2023-04-01T14:27:48;99920.47;;;15.20;67.46
13593;BME280;6867;50.998;4.250;2023-04-01T14:30:30;99921.56;;;15.19;67.44
13593;BME280;6867;50.998;4.250;2023-04-01T14:33:06;99930.50;;;15.19;67.31
13593;BME280;6867;50.998;4.250;2023-04-01T14:35:49;99929.31;;;14.78;67.51
13593;BME280;6867;50.998;4.250;2023-04-01T14:38:43;99962.13;;;14.60;68.65
13593;BME280;6867;50.998;4.250;2023-04-01T14:41:20;99953.69;;;14.83;67.96
13593;BME280;6867;50.998;4.250;2023-04-01T14:44:06;99972.16;;;14.91;68.35
13593;BME280;6867;50.998;4.250;2023-04-01T14:47:04;99978.81;;;14.13;69.47
13593;BME280;6867;50.998;4.250;2023-04-01T14:49:36;99967.75;;;14.36;68.91
13593;BME280;6867;50.998;4.250;2023-04-01T14:52:13;99973.97;;;14.59;68.70
13593;BME280;6867;50.998;4.250;2023-04-01T14:54:42;99981.63;;;14.67;68.62
13593;BME280;6867;50.998;4.250;2023-04-01T14:57:12;99977.25;;;14.61;68.69
13593;BME280;6867;50.998;4.250;2023-04-01T14:59:40;99996.28;;;14.27;69.41
13593;BME280;6867;50.998;4.250;2023-04-01T15:02:18;100012.00;;;14.30;69.69